Time;durP1;ratioP1;P1;durP2;ratioP2;P2;SDS_P1;SDS_P2;PMS_P1;PMS_P2;Temp;Humidity;BMP_temperature;BMP_pressure;BME280_temperature;BME280_humidity;BME280_pressure;Samples;Min_cycle;Max_cycle;Signal;HPM_P1;HPM_P2
2021/04/27 00:00:47;;;;;;;;;;;;;;;19.42;40.99;101368.66;2085541;28;5120;-76
2021/04/27 00:01:47;;;;;;;;;;;;;;;19.42;41.03;101371.50;2085127;28;5088;-76
2021/04/27 00:02:48;;;;;;;;;;;;;;;19.44;41.00;101368.34;2085227;28;4043;-74
2021/04/27 00:03:49;;;;;;;;;;;;;;;19.44;40.98;101362.66;2084319;28;4031;-76
2021/04/27 00:04:50;;;;;;;;;;;;;;;19.44;41.20;101366.34;2085384;28;4141;-75
2021/04/27 00:05:51;;;;;;;;;;;;;;;19.46;41.23;101368.81;2085524;28;5321;-75
2021/04/27 00:06:51;;;;;;;;;;;;;;;19.45;41.16;101362.31;2085430;28;3890;-79
2021/04/27 00:07:52;;;;;;;;;;;;;;;19.46;41.24;101357.47;2085049;28;3900;-83
2021/04/27 00:08:53;;;;;;;;;;;;;;;19.47;41.20;101368.50;2085296;28;4004;-84
2021/04/27 00:09:54;;;;;;;;;;;;;;;19.47;41.23;101365.66;2084928;28;4101;-78
2021/04/27 00:10:55;;;;;;;;;;;;;;;19.48;41.44;101357.97;2085334;28;3996;-82
2021/04/27 00:11:56;;;;;;;;;;;;;;;19.48;41.33;101361.66;2085503;28;3834;-84
2021/04/27 00:12:57;;;;;;;;;;;;;;;19.49;41.29;101363.34;2084942;28;3975;-84
2021/04/27 00:13:57;;;;;;;;;;;;;;;19.50;41.40;101369.84;2085074;28;4010;-83
2021/04/27 00:14:58;;;;;;;;;;;;;;;19.50;41.42;101367.84;2085504;28;4255;-83
2021/04/27 00:15:59;;;;;;;;;;;;;;;19.51;41.49;101368.69;2084864;28;4138;-83
2021/04/27 00:17:00;;;;;;;;;;;;;;;19.52;41.55;101364.69;2085320;28;3860;-84
2021/04/27 00:18:00;;;;;;;;;;;;;;;19.52;41.41;101364.69;2085435;28;4063;-83
2021/04/27 00:19:01;;;;;;;;;;;;;;;19.52;41.41;101364.69;2082868;28;3740;-84
2021/04/27 00:20:02;;;;;;;;;;;;;;;19.52;41.69;101362.69;2085927;28;3977;-79
2021/04/27 00:21:03;;;;;;;;;;;;;;;19.53;41.60;101364.34;2085139;28;3936;-79
2021/04/27 00:22:04;;;;;;;;;;;;;;;19.53;41.53;101363.50;2085346;28;4288;-79
2021/04/27 00:23:05;;;;;;;;;;;;;;;19.54;41.62;101363.16;2085331;28;4030;-80
2021/04/27 00:24:05;;;;;;;;;;;;;;;19.54;41.71;101362.34;2084658;28;4229;-80
2021/04/27 00:25:06;;;;;;;;;;;;;;;19.55;41.59;101364.03;2084911;28;4255;-80
2021/04/27 00:26:07;;;;;;;;;;;;;;;19.56;41.84;101362.84;2085419;28;4049;-80
2021/04/27 00:27:08;;;;;;;;;;;;;;;19.57;41.83;101370.19;2075643;28;4098;-81
2021/04/27 00:28:09;;;;;;;;;;;;;;;19.56;41.76;101355.16;2075206;28;3995;-81
2021/04/27 00:29:09;;;;;;;;;;;;;;;19.56;41.84;101363.69;2084445;28;5085;-80
2021/04/27 00:30:10;;;;;;;;;;;;;;;19.57;41.90;101359.69;2085197;28;3964;-79
2021/04/27 00:31:11;;;;;;;;;;;;;;;19.58;41.70;101347.16;2085053;28;4037;-78
2021/04/27 00:32:12;;;;;;;;;;;;;;;19.58;41.88;101358.50;2082396;28;4003;-74
2021/04/27 00:33:13;;;;;;;;;;;;;;;19.58;41.78;101355.69;2085541;28;3965;-75
2021/04/27 00:34:13;;;;;;;;;;;;;;;19.61;41.82;101359.84;2085333;28;3955;-75
2021/04/27 00:35:14;;;;;;;;;;;;;;;19.62;42.04;101363.53;2083895;28;3997;-74
2021/04/27 00:36:15;;;;;;;;;;;;;;;19.62;41.92;101355.84;2084076;28;4138;-74
2021/04/27 00:37:16;;;;;;;;;;;;;;;19.62;41.97;101350.16;2085562;28;3971;-74
2021/04/27 00:38:16;;;;;;;;;;;;;;;19.63;42.05;101360.38;2083839;28;4007;-74
2021/04/27 00:39:17;;;;;;;;;;;;;;;19.63;42.04;101357.53;2085070;28;3950;-74
2021/04/27 00:40:18;;;;;;;;;;;;;;;19.64;42.09;101362.03;2085368;28;4037;-74
2021/04/27 00:41:19;;;;;;;;;;;;;;;19.64;42.04;101355.53;2083162;28;4324;-75
2021/04/27 00:42:20;;;;;;;;;;;;;;;19.65;42.20;101360.03;2083731;28;3837;-74
2021/04/27 00:43:20;;;;;;;;;;;;;;;19.65;42.14;101360.84;2084860;28;3964;-75
2021/04/27 00:44:21;;;;;;;;;;;;;;;19.65;42.22;101355.19;2084102;28;4075;-75
2021/04/27 00:45:22;;;;;;;;;;;;;;;19.65;42.22;101354.34;2085018;28;3900;-74
2021/04/27 00:46:23;;;;;;;;;;;;;;;19.66;42.20;101356.91;2084420;28;4892;-74
2021/04/27 00:47:23;;;;;;;;;;;;;;;19.66;42.31;101353.22;2085098;28;3895;-74
2021/04/27 00:48:24;;;;;;;;;;;;;;;19.66;42.47;101350.41;2084438;28;3986;-74
2021/04/27 00:49:25;;;;;;;;;;;;;;;19.67;42.31;101352.88;2085251;28;3811;-74
2021/04/27 00:50:26;;;;;;;;;;;;;;;19.67;42.28;101350.03;2084593;28;3826;-75
2021/04/27 00:51:27;;;;;;;;;;;;;;;19.67;42.41;101347.22;2084875;28;4014;-74
2021/04/27 00:52:28;;;;;;;;;;;;;;;19.67;42.41;101347.22;2083828;28;3830;-76
2021/04/27 00:53:28;;;;;;;;;;;;;;;19.68;42.39;101348.03;2085028;28;4006;-75
2021/04/27 00:54:29;;;;;;;;;;;;;;;19.68;42.37;101348.88;2084952;28;3965;-75
2021/04/27 00:55:30;;;;;;;;;;;;;;;19.68;42.48;101348.03;2085389;28;3802;-75
2021/04/27 00:56:30;;;;;;;;;;;;;;;19.69;42.62;101349.72;2084150;28;4008;-78
2021/04/27 00:57:31;;;;;;;;;;;;;;;19.70;42.57;101351.38;2084846;28;3990;-79
2021/04/27 00:58:32;;;;;;;;;;;;;;;19.69;42.49;101344.06;2084663;28;3794;-79
2021/04/27 00:59:33;;;;;;;;;;;;;;;19.71;42.51;101350.22;2085319;28;3973;-79
2021/04/27 01:00:33;;;;;;;;;;;;;;;19.70;42.66;101343.69;2084684;28;5110;-78
2021/04/27 01:01:34;;;;;;;;;;;;;;;19.71;42.63;101341.69;2081774;28;3825;-76
2021/04/27 01:02:35;;;;;;;;;;;;;;;19.71;42.64;101344.53;2085126;28;4029;-77
2021/04/27 01:03:36;;;;;;;;;;;;;;;19.71;42.71;101348.22;2084968;28;4032;-76
2021/04/27 01:04:37;;;;;;;;;;;;;;;19.72;42.85;101346.22;2084513;28;4017;-76
2021/04/27 01:05:37;;;;;;;;;;;;;;;19.72;42.75;101344.22;2084219;28;3851;-76
2021/04/27 01:06:38;;;;;;;;;;;;;;;19.72;42.82;101344.22;2084571;28;3992;-76
2021/04/27 01:07:39;;;;;;;;;;;;;;;19.73;42.86;101339.38;2084975;28;3987;-76
2021/04/27 01:08:40;;;;;;;;;;;;;;;19.73;42.83;101336.53;2084955;28;4000;-80
2021/04/27 01:09:40;;;;;;;;;;;;;;;19.73;42.92;101343.03;2084648;28;3849;-76
2021/04/27 01:10:41;;;;;;;;;;;;;;;19.74;42.97;101341.88;2083110;28;3927;-78
2021/04/27 01:11:42;;;;;;;;;;;;;;;19.74;43.04;101341.88;2085065;28;4200;-78
2021/04/27 01:12:42;;;;;;;;;;;;;;;19.75;43.04;101337.88;2084777;28;3846;-77
2021/04/27 01:13:43;;;;;;;;;;;;;;;19.76;43.10;101333.03;2084863;28;4022;-77
2021/04/27 01:14:44;;;;;;;;;;;;;;;19.75;43.07;101334.19;2085824;28;3826;-77
2021/04/27 01:15:45;;;;;;;;;;;;;;;19.75;43.11;101328.53;2084264;28;3838;-77
2021/04/27 01:16:46;;;;;;;;;;;;;;;19.76;43.28;101330.19;2085176;28;3837;-77
2021/04/27 01:17:46;;;;;;;;;;;;;;;19.76;43.04;101327.34;2083114;28;3983;-78
2021/04/27 01:18:47;;;;;;;;;;;;;;;19.76;43.17;101330.19;2083597;28;4019;-89
2021/04/27 01:19:48;;;;;;;;;;;;;;;19.76;43.16;101333.84;2084906;28;4001;-86
2021/04/27 01:20:49;;;;;;;;;;;;;;;19.76;43.15;101322.50;2083656;28;4063;-87
2021/04/27 01:21:50;;;;;;;;;;;;;;;19.76;43.24;101324.50;2084461;28;3827;-87
2021/04/27 01:22:51;;;;;;;;;;;;;;;19.76;43.17;101328.16;2083364;28;4007;-89
2021/04/27 01:23:51;;;;;;;;;;;;;;;19.77;43.30;101324.19;2084322;28;4001;-83
2021/04/27 01:24:52;;;;;;;;;;;;;;;19.77;43.21;101327.03;2084881;28;5099;-83
2021/04/27 01:25:53;;;;;;;;;;;;;;;19.77;43.31;101317.69;2084388;28;4019;-79
2021/04/27 01:26:53;;;;;;;;;;;;;;;19.77;43.46;101321.34;2082370;28;3830;-78
2021/04/27 01:27:54;;;;;;;;;;;;;;;19.78;43.31;101319.34;2082416;28;4031;-85
2021/04/27 01:28:55;;;;;;;;;;;;;;;19.77;43.33;101324.19;2082738;28;4024;-84
2021/04/27 01:29:58;;;;;;;;;;;;;;;19.79;43.29;101323.84;2081863;28;3999;-81
2021/04/27 01:30:59;;;;;;;;;;;;;;;19.79;43.42;101321.00;2082845;28;3995;-77
2021/04/27 01:31:59;;;;;;;;;;;;;;;19.79;43.37;101321.00;2082935;28;4997;-78
2021/04/27 01:33:00;;;;;;;;;;;;;;;19.79;43.34;101318.16;2082520;28;3999;-77
2021/04/27 01:34:01;;;;;;;;;;;;;;;19.79;43.38;101324.69;2085267;28;3988;-77
2021/04/27 01:35:06;;;;;;;;;;;;;;;19.80;43.37;101319.84;2084803;28;4216;-77
2021/04/27 01:36:07;;;;;;;;;;;;;;;19.79;43.58;101321.00;2084730;28;3984;-78
2021/04/27 01:37:08;;;;;;;;;;;;;;;19.80;43.58;101322.69;2084750;28;5214;-79
2021/04/27 01:38:08;;;;;;;;;;;;;;;19.81;43.45;101318.66;2084241;28;4014;-87
2021/04/27 01:39:10;;;;;;;;;;;;;;;19.82;43.61;101323.16;2084675;28;4236;-84
2021/04/27 01:40:10;;;;;;;;;;;;;;;19.81;43.65;101324.34;2075980;28;4109;-85
2021/04/27 01:41:11;;;;;;;;;;;;;;;19.83;43.71;101321.19;2075981;28;3879;-85
2021/04/27 01:42:12;;;;;;;;;;;;;;;19.83;43.59;101315.50;2084936;28;3998;-85
2021/04/27 01:43:13;;;;;;;;;;;;;;;19.83;43.60;101322.00;2083320;28;4011;-87
2021/04/27 01:44:13;;;;;;;;;;;;;;;19.84;43.63;101322.84;2083670;28;3827;-82
2021/04/27 01:45:14;;;;;;;;;;;;;;;19.83;43.61;101319.19;2084673;28;4400;-77
2021/04/27 01:46:15;;;;;;;;;;;;;;;19.83;43.72;101316.34;2085049;28;4048;-77
2021/04/27 01:47:16;;;;;;;;;;;;;;;19.85;43.73;101318.81;2084678;28;3996;-77
2021/04/27 01:48:16;;;;;;;;;;;;;;;19.84;43.76;101314.31;2083812;28;3754;-78
2021/04/27 01:49:17;;;;;;;;;;;;;;;19.84;43.69;101312.31;2085197;28;4018;-77
2021/04/27 01:50:18;;;;;;;;;;;;;;;19.85;43.76;101314.00;2083551;28;4037;-78
2021/04/27 01:51:19;;;;;;;;;;;;;;;19.85;43.79;101313.16;2084084;28;3952;-78
2021/04/27 01:52:19;;;;;;;;;;;;;;;19.85;43.73;101314.00;2083131;28;3828;-78
2021/04/27 01:53:20;;;;;;;;;;;;;;;19.86;43.78;101312.81;2084690;28;3900;-78
2021/04/27 01:54:21;;;;;;;;;;;;;;;19.86;43.76;101317.69;2084775;28;4066;-78
2021/04/27 01:55:21;;;;;;;;;;;;;;;19.86;43.71;101317.69;2084197;28;3946;-78
2021/04/27 01:56:22;;;;;;;;;;;;;;;19.86;43.74;101315.66;2083761;28;3908;-84
2021/04/27 01:57:23;;;;;;;;;;;;;;;19.86;43.76;101315.66;2084891;28;3996;-80
2021/04/27 01:58:23;;;;;;;;;;;;;;;19.87;43.71;101310.81;2084601;28;3987;-83
2021/04/27 01:59:24;;;;;;;;;;;;;;;19.86;43.79;101310.00;2084704;28;3988;-82
2021/04/27 02:00:25;;;;;;;;;;;;;;;19.86;43.74;101314.84;2083679;28;4129;-78
2021/04/27 02:01:26;;;;;;;;;;;;;;;19.86;43.78;101309.16;2083819;28;3847;-78
2021/04/27 02:02:27;;;;;;;;;;;;;;;19.85;43.86;101316.84;2084266;28;3878;-78
2021/04/27 02:03:27;;;;;;;;;;;;;;;19.85;43.72;101319.69;2084635;28;3982;-78
2021/04/27 02:04:28;;;;;;;;;;;;;;;19.86;43.69;101327.03;2084408;28;3848;-78
2021/04/27 02:05:29;;;;;;;;;;;;;;;19.86;43.83;101307.16;2081872;28;3995;-77
2021/04/27 02:06:30;;;;;;;;;;;;;;;19.86;43.80;101314.84;2083697;28;3846;-78
2021/04/27 02:07:33;;;;;;;;;;;;;;;19.86;43.82;101312.81;2084066;28;4033;-78
2021/04/27 02:08:34;;;;;;;;;;;;;;;19.86;43.90;101309.16;2084362;28;3983;-79
2021/04/27 02:09:35;;;;;;;;;;;;;;;19.87;43.85;101323.00;2083967;28;3787;-79
2021/04/27 02:10:35;;;;;;;;;;;;;;;19.87;43.75;101319.34;2084008;28;3978;-78
2021/04/27 02:11:37;;;;;;;;;;;;;;;19.87;43.74;101317.31;2086050;28;4066;-77
2021/04/27 02:12:38;;;;;;;;;;;;;;;19.87;43.88;101313.66;2085727;28;3931;-77
2021/04/27 02:13:39;;;;;;;;;;;;;;;19.87;43.70;101314.50;2086029;28;3775;-77
2021/04/27 02:14:39;;;;;;;;;;;;;;;19.87;43.90;101317.31;2085786;28;3975;-77
2021/04/27 02:15:40;;;;;;;;;;;;;;;19.87;43.77;101307.97;2086220;28;5017;-82
2021/04/27 02:16:41;;;;;;;;;;;;;;;19.86;43.84;101304.31;2085990;28;3813;-83
2021/04/27 02:17:42;;;;;;;;;;;;;;;19.86;43.86;101312.81;2086072;28;3990;-83
2021/04/27 02:18:43;;;;;;;;;;;;;;;19.86;43.88;101312.00;2086102;28;3959;-79
2021/04/27 02:19:43;;;;;;;;;;;;;;;19.87;43.84;101311.66;2084951;28;4429;-81
2021/04/27 02:20:44;;;;;;;;;;;;;;;19.87;43.69;101308.81;2084831;28;4212;-81
2021/04/27 02:21:45;;;;;;;;;;;;;;;19.86;43.76;101310.00;2085481;28;3760;-81
2021/04/27 02:22:46;;;;;;;;;;;;;;;19.87;43.79;101307.97;2085791;28;3979;-81
2021/04/27 02:23:47;;;;;;;;;;;;;;;19.87;43.84;101308.81;2086338;28;3905;-81
2021/04/27 02:24:47;;;;;;;;;;;;;;;19.87;43.79;101303.13;2086144;28;3920;-81
2021/04/27 02:25:48;;;;;;;;;;;;;;;19.86;43.94;101304.31;2085658;28;3974;-81
2021/04/27 02:26:49;;;;;;;;;;;;;;;19.87;43.88;101293.78;2085595;28;4017;-82
2021/04/27 02:27:50;;;;;;;;;;;;;;;19.87;43.83;101299.47;2084722;28;4012;-82
2021/04/27 02:28:50;;;;;;;;;;;;;;;19.86;43.74;101298.63;2086195;28;3925;-82
2021/04/27 02:29:52;;;;;;;;;;;;;;;19.87;43.86;101300.28;2085423;28;4028;-82
2021/04/27 02:30:52;;;;;;;;;;;;;;;19.87;43.80;101305.97;2086313;28;3870;-77
2021/04/27 02:31:53;;;;;;;;;;;;;;;19.87;43.69;101299.47;2085474;28;3860;-80
2021/04/27 02:32:54;;;;;;;;;;;;;;;19.87;43.83;101300.28;2085818;28;3847;-80
2021/04/27 02:33:55;;;;;;;;;;;;;;;19.86;43.67;101298.63;2085734;28;4038;-80
2021/04/27 02:34:55;;;;;;;;;;;;;;;19.87;43.83;101300.28;2086223;28;4136;-80
2021/04/27 02:35:56;;;;;;;;;;;;;;;19.87;43.71;101294.59;2085757;28;3874;-80
2021/04/27 02:36:57;;;;;;;;;;;;;;;19.87;43.78;101300.28;2085039;28;3854;-80
2021/04/27 02:37:58;;;;;;;;;;;;;;;19.88;43.82;101295.47;2084011;28;3856;-80
2021/04/27 02:38:58;;;;;;;;;;;;;;;19.87;43.75;101296.63;2086468;28;4008;-80
2021/04/27 02:39:59;;;;;;;;;;;;;;;19.88;43.83;101295.47;2086528;28;4060;-80
2021/04/27 02:41:00;;;;;;;;;;;;;;;19.88;43.79;101286.94;2085526;28;3836;-79
2021/04/27 02:42:01;;;;;;;;;;;;;;;19.87;43.84;101288.94;2085708;28;3867;-80
2021/04/27 02:43:02;;;;;;;;;;;;;;;19.88;43.79;101289.78;2086122;28;3993;-79
2021/04/27 02:44:02;;;;;;;;;;;;;;;19.87;43.77;101288.94;2086363;28;4345;-80
2021/04/27 02:45:03;;;;;;;;;;;;;;;19.87;43.77;101290.94;2085825;28;4186;-79
2021/04/27 02:46:04;;;;;;;;;;;;;;;19.87;43.83;101290.94;2084630;28;4008;-80
2021/04/27 02:47:05;;;;;;;;;;;;;;;19.87;43.80;101294.59;2086056;28;4030;-80
2021/04/27 02:48:06;;;;;;;;;;;;;;;19.87;43.78;101294.59;2085007;28;3989;-78
2021/04/27 02:49:07;;;;;;;;;;;;;;;19.87;43.82;101294.59;2086303;28;3982;-78
2021/04/27 02:50:08;;;;;;;;;;;;;;;19.88;43.77;101290.63;2085563;28;3987;-78
2021/04/27 02:51:08;;;;;;;;;;;;;;;19.87;43.84;101288.94;2085957;28;3862;-78
2021/04/27 02:52:09;;;;;;;;;;;;;;;19.88;43.62;101293.47;2085891;28;4912;-78
2021/04/27 02:53:10;;;;;;;;;;;;;;;19.87;43.77;101283.25;2085271;28;4032;-78
2021/04/27 02:54:11;;;;;;;;;;;;;;;19.88;43.85;101279.25;2086017;28;3810;-78
2021/04/27 02:55:13;;;;;;;;;;;;;;;19.88;43.75;101284.94;2086276;28;4011;-78
2021/04/27 02:56:14;;;;;;;;;;;;;;;19.89;43.83;101295.13;2083932;28;3841;-78
2021/04/27 02:57:14;;;;;;;;;;;;;;;19.89;43.89;101288.63;2085749;28;3860;-76
2021/04/27 02:58:15;;;;;;;;;;;;;;;19.89;43.73;101286.59;2084106;28;4032;-75
2021/04/27 02:59:16;;;;;;;;;;;;;;;19.90;43.87;101287.44;2085896;28;3853;-76
2021/04/27 03:00:17;;;;;;;;;;;;;;;19.90;43.65;101285.41;2075234;28;4025;-76
2021/04/27 03:01:17;;;;;;;;;;;;;;;19.89;43.74;101286.59;2077520;28;4080;-76
2021/04/27 03:02:18;;;;;;;;;;;;;;;19.90;43.87;101288.25;2085991;28;3934;-75
2021/04/27 03:03:20;;;;;;;;;;;;;;;19.91;43.69;101283.44;2083041;28;3846;-76
2021/04/27 03:04:21;;;;;;;;;;;;;;;19.91;43.84;101289.13;2069646;28;3986;-76
2021/04/27 03:05:22;;;;;;;;;;;;;;;19.91;43.79;101289.13;2069185;28;3979;-76
2021/04/27 03:06:23;;;;;;;;;;;;;;;19.91;43.72;101289.13;2086175;28;3797;-77
2021/04/27 03:07:23;;;;;;;;;;;;;;;19.89;43.88;101286.59;2085707;28;3931;-77
2021/04/27 03:08:24;;;;;;;;;;;;;;;19.90;43.83;101293.94;2084042;28;3914;-76
2021/04/27 03:09:25;;;;;;;;;;;;;;;19.91;43.79;101289.13;2085075;28;4309;-76
2021/04/27 03:10:25;;;;;;;;;;;;;;;19.91;43.82;101291.97;2084969;28;4001;-76
2021/04/27 03:11:26;;;;;;;;;;;;;;;19.91;43.83;101289.94;2084721;28;3903;-75
2021/04/27 03:12:27;;;;;;;;;;;;;;;19.91;43.82;101289.94;2086042;28;3800;-75
2021/04/27 03:13:28;;;;;;;;;;;;;;;19.91;43.88;101292.78;2082879;28;3869;-76
2021/04/27 03:14:29;;;;;;;;;;;;;;;19.90;43.82;101291.09;2085205;28;3981;-76
2021/04/27 03:15:30;;;;;;;;;;;;;;;19.91;43.90;101289.13;2085552;28;3796;-76
2021/04/27 03:16:30;;;;;;;;;;;;;;;19.90;43.87;101288.25;2085715;28;4060;-76
2021/04/27 03:17:31;;;;;;;;;;;;;;;19.91;43.89;101289.13;2084388;28;4007;-76
2021/04/27 03:18:32;;;;;;;;;;;;;;;19.90;43.92;101288.25;2085812;28;3816;-76
2021/04/27 03:19:33;;;;;;;;;;;;;;;19.90;43.89;101282.59;2085261;28;3997;-76
2021/04/27 03:20:33;;;;;;;;;;;;;;;19.91;43.92;101283.44;2083205;28;4105;-76
2021/04/27 03:21:34;;;;;;;;;;;;;;;19.91;43.82;101286.28;2085554;28;3800;-79
2021/04/27 03:22:35;;;;;;;;;;;;;;;19.91;43.83;101280.59;2085554;28;4018;-78
2021/04/27 03:23:36;;;;;;;;;;;;;;;19.91;43.98;101280.59;2084796;28;5073;-78
2021/04/27 03:24:36;;;;;;;;;;;;;;;19.91;43.86;101278.59;2085029;28;4683;-78
2021/04/27 03:25:37;;;;;;;;;;;;;;;19.91;43.87;101284.28;2085207;28;3960;-78
2021/04/27 03:26:38;;;;;;;;;;;;;;;19.91;43.78;101284.28;2085878;28;3833;-78
2021/04/27 03:27:39;;;;;;;;;;;;;;;19.91;43.82;101274.91;2085932;28;3944;-79
2021/04/27 03:28:39;;;;;;;;;;;;;;;19.91;43.95;101278.59;2085163;28;3932;-78
2021/04/27 03:29:40;;;;;;;;;;;;;;;19.91;44.05;101277.75;2084370;28;3831;-78
2021/04/27 03:30:41;;;;;;;;;;;;;;;19.90;43.86;101285.41;2085829;28;3906;-78
2021/04/27 03:31:42;;;;;;;;;;;;;;;19.91;43.94;101278.59;2085807;28;5110;-78
2021/04/27 03:32:42;;;;;;;;;;;;;;;19.90;43.95;101282.59;2084507;28;4898;-75
2021/04/27 03:33:43;;;;;;;;;;;;;;;19.91;43.95;101278.59;2085266;28;3877;-77
2021/04/27 03:34:44;;;;;;;;;;;;;;;19.91;43.90;101283.44;2085756;28;3996;-77
2021/04/27 03:35:45;;;;;;;;;;;;;;;19.91;43.75;101281.44;2085797;28;4173;-77
2021/04/27 03:36:46;;;;;;;;;;;;;;;19.91;43.94;101281.44;2085420;28;3983;-77
2021/04/27 03:37:46;;;;;;;;;;;;;;;19.91;43.81;101274.91;2084831;28;3887;-85
2021/04/27 03:38:47;;;;;;;;;;;;;;;19.93;43.86;101283.91;2084764;28;4007;-83
2021/04/27 03:39:49;;;;;;;;;;;;;;;19.90;43.84;101276.91;2084642;28;3989;-74
2021/04/27 03:40:49;;;;;;;;;;;;;;;19.90;43.92;101285.41;2085656;28;3986;-74
2021/04/27 03:41:50;;;;;;;;;;;;;;;19.91;43.83;101280.59;2085917;28;4107;-75
2021/04/27 03:42:51;;;;;;;;;;;;;;;19.91;43.94;101280.59;2084135;28;3868;-75
2021/04/27 03:43:52;;;;;;;;;;;;;;;19.91;43.85;101283.44;2085498;28;4039;-75
2021/04/27 03:44:52;;;;;;;;;;;;;;;19.91;43.94;101283.44;2085958;28;3970;-75
2021/04/27 03:45:53;;;;;;;;;;;;;;;19.92;43.95;101279.41;2085261;28;3994;-76
2021/04/27 03:46:54;;;;;;;;;;;;;;;19.91;43.93;101281.44;2085407;28;3979;-75
2021/04/27 03:47:55;;;;;;;;;;;;;;;19.91;43.98;101274.91;2085944;28;3984;-78
2021/04/27 03:48:56;;;;;;;;;;;;;;;19.91;43.94;101284.28;2084629;28;3763;-77
2021/04/27 03:49:58;;;;;;;;;;;;;;;19.91;43.94;101278.59;2085895;28;3838;-78
2021/04/27 03:50:58;;;;;;;;;;;;;;;19.91;43.82;101284.28;2084540;28;3970;-77
2021/04/27 03:51:59;;;;;;;;;;;;;;;19.92;43.99;101280.25;2085044;28;3835;-77
2021/04/27 03:53:00;;;;;;;;;;;;;;;19.91;43.85;101278.59;2083342;28;3996;-78
2021/04/27 03:54:02;;;;;;;;;;;;;;;19.91;43.84;101283.44;2076560;28;4007;-78
2021/04/27 03:55:03;;;;;;;;;;;;;;;19.91;43.85;101272.91;2076679;28;3997;-78
2021/04/27 03:56:04;;;;;;;;;;;;;;;19.90;43.85;101279.75;2085327;28;3869;-78
2021/04/27 03:57:04;;;;;;;;;;;;;;;19.90;43.87;101274.06;2085183;28;3852;-78
2021/04/27 03:58:05;;;;;;;;;;;;;;;19.91;43.84;101278.59;2084126;28;3859;-78
2021/04/27 03:59:07;;;;;;;;;;;;;;;19.90;43.82;101282.59;2083819;28;3836;-79
2021/04/27 04:00:07;;;;;;;;;;;;;;;19.91;43.94;101278.59;2084866;28;3838;-78
2021/04/27 04:01:08;;;;;;;;;;;;;;;19.91;43.78;101278.59;2084546;28;5109;-79
2021/04/27 04:02:09;;;;;;;;;;;;;;;19.92;43.77;101282.25;2085725;28;3853;-78
2021/04/27 04:03:10;;;;;;;;;;;;;;;19.91;43.93;101280.59;2084443;28;5200;-86
2021/04/27 04:04:11;;;;;;;;;;;;;;;19.91;43.89;101284.28;2084344;28;4054;-86
2021/04/27 04:05:11;;;;;;;;;;;;;;;19.92;43.89;101276.59;2085193;28;3886;-87
2021/04/27 04:06:12;;;;;;;;;;;;;;;19.93;43.93;101278.25;2084818;28;4010;-87
2021/04/27 04:07:13;;;;;;;;;;;;;;;19.93;43.99;101287.63;2085157;28;4153;-86
2021/04/27 04:08:14;;;;;;;;;;;;;;;19.92;43.96;101277.41;2082986;28;4069;-85
2021/04/27 04:09:14;;;;;;;;;;;;;;;19.93;43.88;101284.78;2082798;28;3839;-86
2021/04/27 04:10:15;;;;;;;;;;;;;;;19.93;43.96;101287.63;2085297;28;3870;-85
2021/04/27 04:11:16;;;;;;;;;;;;;;;19.93;43.92;101281.94;2084724;28;3852;-85
2021/04/27 04:12:17;;;;;;;;;;;;;;;19.93;43.94;101287.63;2085483;28;3835;-85
2021/04/27 04:13:17;;;;;;;;;;;;;;;19.93;43.97;101283.91;2084248;28;4084;-85
2021/04/27 04:14:18;;;;;;;;;;;;;;;19.94;43.97;101285.59;2085165;28;3855;-78
2021/04/27 04:15:19;;;;;;;;;;;;;;;19.94;43.97;101288.44;2084702;28;3872;-79
2021/04/27 04:16:20;;;;;;;;;;;;;;;19.94;43.76;101288.44;2084546;28;4005;-79
2021/04/27 04:17:21;;;;;;;;;;;;;;;19.94;43.91;101294.13;2084866;28;4206;-80
2021/04/27 04:18:21;;;;;;;;;;;;;;;19.95;44.05;101287.25;2085042;28;4114;-85
2021/04/27 04:19:22;;;;;;;;;;;;;;;19.94;43.88;101292.13;2084362;28;4073;-84
2021/04/27 04:20:23;;;;;;;;;;;;;;;19.95;44.02;101290.09;2084030;28;3987;-84
2021/04/27 04:21:24;;;;;;;;;;;;;;;19.94;43.99;101282.78;2084877;28;4934;-80
2021/04/27 04:22:25;;;;;;;;;;;;;;;19.94;43.97;101286.44;2085228;28;3849;-80
2021/04/27 04:23:25;;;;;;;;;;;;;;;19.94;44.02;101294.13;2085026;28;3986;-80
2021/04/27 04:24:26;;;;;;;;;;;;;;;19.94;43.99;101294.13;2085356;28;3971;-80
2021/04/27 04:25:27;;;;;;;;;;;;;;;19.95;43.97;101295.78;2084327;28;5180;-81
2021/04/27 04:26:27;;;;;;;;;;;;;;;19.94;43.99;101294.97;2084869;28;4000;-81
2021/04/27 04:27:28;;;;;;;;;;;;;;;19.94;43.94;101294.97;2085310;28;3823;-81
2021/04/27 04:28:29;;;;;;;;;;;;;;;19.94;44.08;101294.97;2085220;28;3940;-81
2021/04/27 04:29:30;;;;;;;;;;;;;;;19.95;43.96;101296.63;2084467;28;3841;-80
2021/04/27 04:30:30;;;;;;;;;;;;;;;19.94;44.14;101292.13;2084208;28;3977;-81
2021/04/27 04:31:31;;;;;;;;;;;;;;;19.94;43.97;101294.97;2085541;28;3898;-81
2021/04/27 04:32:32;;;;;;;;;;;;;;;19.93;43.92;101287.63;2084314;28;4018;-81
2021/04/27 04:33:37;;;;;;;;;;;;;;;19.94;44.01;101303.47;2084592;28;3806;-80
2021/04/27 04:34:38;;;;;;;;;;;;;;;19.94;43.94;101300.63;2085237;28;3958;-81
2021/04/27 04:35:39;;;;;;;;;;;;;;;19.95;44.01;101302.28;2085388;28;5308;-81
2021/04/27 04:36:39;;;;;;;;;;;;;;;19.94;43.92;101303.47;2084734;28;3956;-81
2021/04/27 04:37:40;;;;;;;;;;;;;;;19.94;44.04;101297.78;2084166;28;3893;-80
2021/04/27 04:38:41;;;;;;;;;;;;;;;19.95;44.07;101299.47;2082588;28;3862;-80
2021/04/27 04:39:42;;;;;;;;;;;;;;;19.95;43.90;101298.63;2085342;28;3755;-81
2021/04/27 04:40:42;;;;;;;;;;;;;;;19.95;43.97;101301.47;2085026;28;3772;-81
2021/04/27 04:41:43;;;;;;;;;;;;;;;19.93;44.09;101293.31;2083833;28;5348;-79
2021/04/27 04:42:44;;;;;;;;;;;;;;;19.95;43.96;101301.47;2084167;28;4029;-80
2021/04/27 04:43:44;;;;;;;;;;;;;;;19.95;43.96;101298.63;2084632;28;4043;-79
2021/04/27 04:44:45;;;;;;;;;;;;;;;19.94;44.00;101303.47;2085107;28;4086;-80
2021/04/27 04:45:46;;;;;;;;;;;;;;;19.95;44.11;101302.28;2084069;28;3999;-84
2021/04/27 04:46:47;;;;;;;;;;;;;;;19.95;44.03;101302.28;2084597;28;3864;-78
2021/04/27 04:47:48;;;;;;;;;;;;;;;19.94;44.13;101297.78;2084563;28;3993;-78
2021/04/27 04:48:48;;;;;;;;;;;;;;;19.95;44.04;101301.47;2084642;28;4009;-77
2021/04/27 04:49:50;;;;;;;;;;;;;;;19.94;44.12;101300.63;2083789;28;3784;-79
2021/04/27 04:50:51;;;;;;;;;;;;;;;19.95;44.03;101298.63;2084098;28;4000;-78
2021/04/27 04:51:51;;;;;;;;;;;;;;;19.94;43.98;101297.78;2084404;28;3855;-78
2021/04/27 04:52:52;;;;;;;;;;;;;;;19.95;43.99;101301.47;2085256;28;3792;-82
2021/04/27 04:53:53;;;;;;;;;;;;;;;19.95;44.15;101299.47;2084515;28;4095;-82
2021/04/27 04:54:53;;;;;;;;;;;;;;;19.94;44.03;101294.97;2085469;28;4006;-82
2021/04/27 04:55:54;;;;;;;;;;;;;;;19.95;44.15;101296.63;2084977;28;3856;-82
2021/04/27 04:56:55;;;;;;;;;;;;;;;19.94;44.08;101300.63;2084414;28;3995;-79
2021/04/27 04:57:56;;;;;;;;;;;;;;;19.95;44.13;101292.94;2084283;28;5218;-84
2021/04/27 04:58:57;;;;;;;;;;;;;;;19.94;44.18;101300.63;2084955;28;3863;-84
2021/04/27 04:59:58;;;;;;;;;;;;;;;19.95;44.18;101295.78;2084784;28;3963;-84
2021/04/27 05:00:58;;;;;;;;;;;;;;;19.94;44.15;101294.97;2083910;28;4864;-77
2021/04/27 05:01:59;;;;;;;;;;;;;;;19.94;44.18;101294.97;2082475;28;4027;-77
2021/04/27 05:03:00;;;;;;;;;;;;;;;19.95;44.03;101302.28;2085185;28;4015;-77
2021/04/27 05:04:01;;;;;;;;;;;;;;;19.95;44.15;101295.78;2084006;28;4005;-78
2021/04/27 05:05:02;;;;;;;;;;;;;;;19.95;44.22;101296.63;2084767;28;3925;-78
2021/04/27 05:06:04;;;;;;;;;;;;;;;19.96;44.09;101303.16;2084850;28;5093;-83
2021/04/27 05:07:09;;;;;;;;;;;;;;;19.95;44.09;101288.09;2082387;28;4025;-82
2021/04/27 05:08:20;;;;;;;;;;;;;;;19.95;44.23;101299.47;2084031;28;3965;-81
2021/04/27 05:09:21;;;;;;;;;;;;;;;19.96;44.17;101301.16;2082705;28;3953;-80
2021/04/27 05:10:22;;;;;;;;;;;;;;;19.95;44.20;101290.09;2084677;28;3830;-83
2021/04/27 05:11:22;;;;;;;;;;;;;;;19.95;44.20;101296.63;2083444;28;3843;-81
2021/04/27 05:12:23;;;;;;;;;;;;;;;19.96;44.28;101292.63;2084267;28;3953;-80
2021/04/27 05:13:24;;;;;;;;;;;;;;;19.96;44.23;101298.31;2082762;28;3882;-79
2021/04/27 05:14:25;;;;;;;;;;;;;;;19.96;44.20;101292.63;2084793;28;3984;-78
2021/04/27 05:15:26;;;;;;;;;;;;;;;19.96;44.30;101286.94;2084376;28;3813;-79
2021/04/27 05:16:26;;;;;;;;;;;;;;;19.95;44.25;101293.78;2084011;28;3823;-79
2021/04/27 05:17:27;;;;;;;;;;;;;;;19.96;44.23;101298.31;2083983;28;3984;-79